Wadsworth, Ohio
Current Conditions -  °F | °C
As of 10:56 PM on Saturday 25 Oct 2014 (Local Time) from KBJJ Reporting Station
Clear Clear  
Wind Chill: 57°   Ceiling: Unl
Heat Index: 57°   Visibility: 10mi
Dew Point: 33°   Wind: 10mph
Humidity: 40%   Direction: 290°WNW
Pressure: 29.84"   Gusts: NA
Location:  41.02°N, 81.73°W
Report Text: KBJJ 260256Z AUTO 29009KT 10SM CLR 14/01 A2984 RMK AO2 RAE01 SLP102 P0000 60000 T01390006 53010 TSNO
Loading
Personal Weather Stations






























Interactive Weather Map
Tropical Storm Tracking
New forecast layout! Learn more

10-Day Weather Forecast

Advertisements
Track Severe Weather on mobile